sensor_id;sensor_type;location;lat;lon;timestamp;P1;durP1;ratioP1;P2;durP2;ratioP2
56005;SDS011;41888;44.696;10.522;2022-12-07T00:01:18;34.97;;;19.08;;
56005;SDS011;41888;44.696;10.522;2022-12-07T00:03:49;32.15;;;17.88;;
56005;SDS011;41888;44.696;10.522;2022-12-07T00:06:18;30.92;;;18.45;;
56005;SDS011;41888;44.696;10.522;2022-12-07T00:08:45;32.60;;;17.30;;
56005;SDS011;41888;44.696;10.522;2022-12-07T00:11:16;32.40;;;18.52;;
56005;SDS011;41888;44.696;10.522;2022-12-07T00:13:45;26.75;;;16.45;;
56005;SDS011;41888;44.696;10.522;2022-12-07T00:16:13;27.90;;;15.90;;
56005;SDS011;41888;44.696;10.522;2022-12-07T00:18:41;28.95;;;15.02;;
56005;SDS011;41888;44.696;10.522;2022-12-07T00:21:10;25.88;;;14.27;;
56005;SDS011;41888;44.696;10.522;2022-12-07T00:23:36;28.58;;;15.35;;
56005;SDS011;41888;44.696;10.522;2022-12-07T00:26:08;31.77;;;16.17;;
56005;SDS011;41888;44.696;10.522;2022-12-07T00:28:37;30.63;;;16.20;;
56005;SDS011;41888;44.696;10.522;2022-12-07T00:31:08;28.77;;;16.38;;
56005;SDS011;41888;44.696;10.522;2022-12-07T00:33:36;28.65;;;15.52;;
56005;SDS011;41888;44.696;10.522;2022-12-07T00:36:07;28.48;;;14.98;;
56005;SDS011;41888;44.696;10.522;2022-12-07T00:38:36;28.27;;;15.50;;
56005;SDS011;41888;44.696;10.522;2022-12-07T00:41:04;29.85;;;15.68;;
56005;SDS011;41888;44.696;10.522;2022-12-07T00:43:37;32.80;;;17.23;;
56005;SDS011;41888;44.696;10.522;2022-12-07T00:46:03;31.33;;;16.25;;
56005;SDS011;41888;44.696;10.522;2022-12-07T00:48:30;34.45;;;16.88;;
56005;SDS011;41888;44.696;10.522;2022-12-07T00:50:56;28.45;;;15.50;;
56005;SDS011;41888;44.696;10.522;2022-12-07T00:53:22;32.58;;;17.40;;
56005;SDS011;41888;44.696;10.522;2022-12-07T00:55:49;29.52;;;15.88;;
56005;SDS011;41888;44.696;10.522;2022-12-07T00:58:15;30.75;;;15.57;;
56005;SDS011;41888;44.696;10.522;2022-12-07T01:00:42;30.08;;;15.30;;
56005;SDS011;41888;44.696;10.522;2022-12-07T01:03:10;30.70;;;15.60;;
56005;SDS011;41888;44.696;10.522;2022-12-07T01:05:38;33.25;;;16.38;;
56005;SDS011;41888;44.696;10.522;2022-12-07T01:08:05;31.05;;;16.13;;
56005;SDS011;41888;44.696;10.522;2022-12-07T01:10:31;30.90;;;15.73;;
56005;SDS011;41888;44.696;10.522;2022-12-07T01:12:58;27.55;;;15.13;;
56005;SDS011;41888;44.696;10.522;2022-12-07T01:15:25;28.42;;;15.98;;
56005;SDS011;41888;44.696;10.522;2022-12-07T01:17:51;28.38;;;14.18;;
56005;SDS011;41888;44.696;10.522;2022-12-07T01:20:17;28.98;;;14.25;;
56005;SDS011;41888;44.696;10.522;2022-12-07T01:22:44;25.70;;;13.32;;
56005;SDS011;41888;44.696;10.522;2022-12-07T01:25:10;27.85;;;14.50;;
56005;SDS011;41888;44.696;10.522;2022-12-07T01:27:37;26.80;;;13.98;;
56005;SDS011;41888;44.696;10.522;2022-12-07T01:30:04;28.00;;;14.48;;
56005;SDS011;41888;44.696;10.522;2022-12-07T01:32:35;25.95;;;13.38;;
56005;SDS011;41888;44.696;10.522;2022-12-07T01:35:01;28.38;;;14.40;;
56005;SDS011;41888;44.696;10.522;2022-12-07T01:37:27;24.08;;;13.07;;
56005;SDS011;41888;44.696;10.522;2022-12-07T01:39:58;28.55;;;13.25;;
56005;SDS011;41888;44.696;10.522;2022-12-07T01:42:24;24.67;;;12.82;;
56005;SDS011;41888;44.696;10.522;2022-12-07T01:47:55;23.00;;;12.38;;
56005;SDS011;41888;44.696;10.522;2022-12-07T01:50:24;25.00;;;12.48;;
56005;SDS011;41888;44.696;10.522;2022-12-07T01:52:53;21.38;;;11.00;;
56005;SDS011;41888;44.696;10.522;2022-12-07T01:55:22;25.48;;;13.30;;
56005;SDS011;41888;44.696;10.522;2022-12-07T01:57:49;20.27;;;11.40;;
56005;SDS011;41888;44.696;10.522;2022-12-07T02:00:18;21.40;;;11.68;;
56005;SDS011;41888;44.696;10.522;2022-12-07T02:05:20;21.40;;;11.30;;
56005;SDS011;41888;44.696;10.522;2022-12-07T02:07:52;23.45;;;11.82;;
56005;SDS011;41888;44.696;10.522;2022-12-07T02:10:22;21.27;;;11.55;;
56005;SDS011;41888;44.696;10.522;2022-12-07T02:12:55;20.48;;;10.50;;
56005;SDS011;41888;44.696;10.522;2022-12-07T02:18:25;20.17;;;10.68;;
56005;SDS011;41888;44.696;10.522;2022-12-07T02:21:17;21.00;;;9.88;;
56005;SDS011;41888;44.696;10.522;2022-12-07T02:23:53;18.27;;;9.88;;
56005;SDS011;41888;44.696;10.522;2022-12-07T02:29:21;20.73;;;10.15;;
56005;SDS011;41888;44.696;10.522;2022-12-07T02:31:55;19.73;;;10.23;;
56005;SDS011;41888;44.696;10.522;2022-12-07T02:37:18;17.27;;;9.50;;
56005;SDS011;41888;44.696;10.522;2022-12-07T02:40:21;20.00;;;10.73;;
56005;SDS011;41888;44.696;10.522;2022-12-07T02:43:03;18.77;;;10.10;;
56005;SDS011;41888;44.696;10.522;2022-12-07T02:45:34;19.40;;;10.35;;
56005;SDS011;41888;44.696;10.522;2022-12-07T02:48:03;16.80;;;8.93;;
56005;SDS011;41888;44.696;10.522;2022-12-07T02:50:32;16.67;;;9.23;;
56005;SDS011;41888;44.696;10.522;2022-12-07T02:52:58;17.88;;;9.77;;
56005;SDS011;41888;44.696;10.522;2022-12-07T02:55:26;16.90;;;9.23;;
56005;SDS011;41888;44.696;10.522;2022-12-07T03:00:44;17.48;;;9.35;;
56005;SDS011;41888;44.696;10.522;2022-12-07T03:03:42;15.65;;;8.82;;
56005;SDS011;41888;44.696;10.522;2022-12-07T03:06:20;17.15;;;8.65;;
56005;SDS011;41888;44.696;10.522;2022-12-07T03:08:57;14.50;;;8.63;;
56005;SDS011;41888;44.696;10.522;2022-12-07T03:11:50;15.55;;;8.73;;
56005;SDS011;41888;44.696;10.522;2022-12-07T03:14:33;14.77;;;8.75;;
56005;SDS011;41888;44.696;10.522;2022-12-07T03:17:10;16.52;;;8.45;;
56005;SDS011;41888;44.696;10.522;2022-12-07T03:19:42;16.58;;;9.00;;
56005;SDS011;41888;44.696;10.522;2022-12-07T03:22:12;17.88;;;9.70;;
56005;SDS011;41888;44.696;10.522;2022-12-07T03:24:55;20.35;;;9.80;;
56005;SDS011;41888;44.696;10.522;2022-12-07T03:27:28;16.20;;;8.38;;
56005;SDS011;41888;44.696;10.522;2022-12-07T03:30:00;14.05;;;8.50;;
56005;SDS011;41888;44.696;10.522;2022-12-07T03:35:09;16.73;;;8.82;;
56005;SDS011;41888;44.696;10.522;2022-12-07T03:37:54;14.75;;;8.50;;
56005;SDS011;41888;44.696;10.522;2022-12-07T03:42:59;17.17;;;10.20;;
56005;SDS011;41888;44.696;10.522;2022-12-07T03:45:31;14.02;;;8.70;;
56005;SDS011;41888;44.696;10.522;2022-12-07T03:48:08;17.38;;;8.88;;
56005;SDS011;41888;44.696;10.522;2022-12-07T03:51:12;17.80;;;9.77;;
56005;SDS011;41888;44.696;10.522;2022-12-07T03:53:57;21.00;;;9.02;;
56005;SDS011;41888;44.696;10.522;2022-12-07T03:56:31;18.30;;;9.00;;
56005;SDS011;41888;44.696;10.522;2022-12-07T03:58:59;18.02;;;9.07;;
56005;SDS011;41888;44.696;10.522;2022-12-07T04:01:25;18.90;;;10.18;;
56005;SDS011;41888;44.696;10.522;2022-12-07T04:03:52;18.08;;;10.52;;
56005;SDS011;41888;44.696;10.522;2022-12-07T04:06:18;18.02;;;9.43;;
56005;SDS011;41888;44.696;10.522;2022-12-07T04:08:44;14.10;;;8.95;;
56005;SDS011;41888;44.696;10.522;2022-12-07T04:11:10;19.67;;;9.38;;
56005;SDS011;41888;44.696;10.522;2022-12-07T04:13:37;17.33;;;9.07;;
56005;SDS011;41888;44.696;10.522;2022-12-07T04:18:47;18.55;;;9.93;;
56005;SDS011;41888;44.696;10.522;2022-12-07T04:21:14;19.52;;;10.60;;
56005;SDS011;41888;44.696;10.522;2022-12-07T04:23:40;20.95;;;10.30;;
56005;SDS011;41888;44.696;10.522;2022-12-07T04:26:06;18.55;;;9.32;;
56005;SDS011;41888;44.696;10.522;2022-12-07T04:28:32;18.52;;;10.50;;
56005;SDS011;41888;44.696;10.522;2022-12-07T04:30:58;19.95;;;10.68;;
56005;SDS011;41888;44.696;10.522;2022-12-07T04:33:24;17.25;;;8.85;;
56005;SDS011;41888;44.696;10.522;2022-12-07T04:35:51;20.83;;;10.98;;
56005;SDS011;41888;44.696;10.522;2022-12-07T04:38:17;17.40;;;9.38;;
56005;SDS011;41888;44.696;10.522;2022-12-07T04:40:43;18.23;;;9.70;;
56005;SDS011;41888;44.696;10.522;2022-12-07T04:43:09;19.73;;;10.68;;
56005;SDS011;41888;44.696;10.522;2022-12-07T04:45:35;20.80;;;10.63;;
56005;SDS011;41888;44.696;10.522;2022-12-07T04:48:01;19.45;;;10.05;;
56005;SDS011;41888;44.696;10.522;2022-12-07T04:50:28;18.23;;;8.85;;
56005;SDS011;41888;44.696;10.522;2022-12-07T04:52:54;20.42;;;10.95;;
56005;SDS011;41888;44.696;10.522;2022-12-07T04:55:20;16.90;;;9.73;;
56005;SDS011;41888;44.696;10.522;2022-12-07T04:57:46;18.65;;;10.13;;
56005;SDS011;41888;44.696;10.522;2022-12-07T05:00:12;18.50;;;9.95;;
56005;SDS011;41888;44.696;10.522;2022-12-07T05:02:39;19.05;;;9.65;;
56005;SDS011;41888;44.696;10.522;2022-12-07T05:05:05;22.67;;;10.13;;
56005;SDS011;41888;44.696;10.522;2022-12-07T05:07:31;20.90;;;11.32;;
56005;SDS011;41888;44.696;10.522;2022-12-07T05:09:57;22.55;;;10.93;;
56005;SDS011;41888;44.696;10.522;2022-12-07T05:12:23;18.00;;;9.20;;
56005;SDS011;41888;44.696;10.522;2022-12-07T05:14:50;18.60;;;9.98;;
56005;SDS011;41888;44.696;10.522;2022-12-07T05:17:16;20.13;;;9.32;;
56005;SDS011;41888;44.696;10.522;2022-12-07T05:19:42;20.38;;;10.63;;
56005;SDS011;41888;44.696;10.522;2022-12-07T05:22:08;17.05;;;10.65;;
56005;SDS011;41888;44.696;10.522;2022-12-07T05:24:35;22.63;;;10.93;;
56005;SDS011;41888;44.696;10.522;2022-12-07T05:27:01;19.25;;;10.43;;
56005;SDS011;41888;44.696;10.522;2022-12-07T05:29:27;18.90;;;10.13;;
56005;SDS011;41888;44.696;10.522;2022-12-07T05:31:54;16.33;;;9.70;;
56005;SDS011;41888;44.696;10.522;2022-12-07T05:34:20;17.52;;;8.80;;
56005;SDS011;41888;44.696;10.522;2022-12-07T05:36:46;17.48;;;9.85;;
56005;SDS011;41888;44.696;10.522;2022-12-07T05:39:12;17.48;;;9.35;;
56005;SDS011;41888;44.696;10.522;2022-12-07T05:41:38;17.42;;;9.95;;
56005;SDS011;41888;44.696;10.522;2022-12-07T05:44:23;16.60;;;8.52;;
56005;SDS011;41888;44.696;10.522;2022-12-07T05:46:50;16.17;;;8.23;;
56005;SDS011;41888;44.696;10.522;2022-12-07T05:49:16;15.63;;;8.63;;
56005;SDS011;41888;44.696;10.522;2022-12-07T05:51:42;12.10;;;7.65;;
56005;SDS011;41888;44.696;10.522;2022-12-07T05:54:08;16.15;;;8.95;;
56005;SDS011;41888;44.696;10.522;2022-12-07T05:56:35;19.20;;;8.63;;
56005;SDS011;41888;44.696;10.522;2022-12-07T05:59:01;16.13;;;8.20;;
56005;SDS011;41888;44.696;10.522;2022-12-07T06:04:12;15.48;;;7.97;;
56005;SDS011;41888;44.696;10.522;2022-12-07T06:06:38;15.98;;;8.20;;
56005;SDS011;41888;44.696;10.522;2022-12-07T06:09:04;17.63;;;7.38;;
56005;SDS011;41888;44.696;10.522;2022-12-07T06:11:31;14.30;;;8.40;;
56005;SDS011;41888;44.696;10.522;2022-12-07T06:16:42;16.85;;;8.90;;
56005;SDS011;41888;44.696;10.522;2022-12-07T06:19:08;16.23;;;7.93;;
56005;SDS011;41888;44.696;10.522;2022-12-07T06:21:34;17.98;;;9.23;;
56005;SDS011;41888;44.696;10.522;2022-12-07T06:24:01;16.00;;;8.70;;
56005;SDS011;41888;44.696;10.522;2022-12-07T06:26:27;15.75;;;8.30;;
56005;SDS011;41888;44.696;10.522;2022-12-07T06:28:54;17.77;;;9.38;;
56005;SDS011;41888;44.696;10.522;2022-12-07T06:31:20;19.95;;;9.82;;
56005;SDS011;41888;44.696;10.522;2022-12-07T06:33:46;16.50;;;10.13;;
56005;SDS011;41888;44.696;10.522;2022-12-07T06:36:13;17.60;;;8.57;;
56005;SDS011;41888;44.696;10.522;2022-12-07T06:38:39;15.75;;;9.60;;
56005;SDS011;41888;44.696;10.522;2022-12-07T06:41:05;16.63;;;10.13;;
56005;SDS011;41888;44.696;10.522;2022-12-07T06:43:32;16.02;;;9.00;;
56005;SDS011;41888;44.696;10.522;2022-12-07T06:45:58;18.55;;;10.77;;
56005;SDS011;41888;44.696;10.522;2022-12-07T06:48:25;24.27;;;12.27;;
56005;SDS011;41888;44.696;10.522;2022-12-07T06:50:51;19.67;;;10.30;;
56005;SDS011;41888;44.696;10.522;2022-12-07T06:53:17;22.45;;;10.70;;
56005;SDS011;41888;44.696;10.522;2022-12-07T06:55:43;20.90;;;11.02;;
56005;SDS011;41888;44.696;10.522;2022-12-07T06:58:09;21.83;;;11.43;;
56005;SDS011;41888;44.696;10.522;2022-12-07T07:00:36;20.17;;;10.52;;
56005;SDS011;41888;44.696;10.522;2022-12-07T07:03:02;20.00;;;10.77;;
56005;SDS011;41888;44.696;10.522;2022-12-07T07:05:28;19.23;;;9.80;;
56005;SDS011;41888;44.696;10.522;2022-12-07T07:07:54;18.27;;;9.90;;
56005;SDS011;41888;44.696;10.522;2022-12-07T07:10:20;19.67;;;10.45;;
56005;SDS011;41888;44.696;10.522;2022-12-07T07:12:47;20.73;;;11.55;;
56005;SDS011;41888;44.696;10.522;2022-12-07T07:15:13;24.05;;;10.25;;
56005;SDS011;41888;44.696;10.522;2022-12-07T07:17:39;21.95;;;11.25;;
56005;SDS011;41888;44.696;10.522;2022-12-07T07:20:05;19.80;;;11.65;;
56005;SDS011;41888;44.696;10.522;2022-12-07T07:22:32;18.48;;;10.40;;
56005;SDS011;41888;44.696;10.522;2022-12-07T07:24:58;25.60;;;9.82;;
56005;SDS011;41888;44.696;10.522;2022-12-07T07:27:24;17.65;;;9.63;;
56005;SDS011;41888;44.696;10.522;2022-12-07T07:29:50;15.07;;;9.50;;
56005;SDS011;41888;44.696;10.522;2022-12-07T07:32:16;16.60;;;8.43;;
56005;SDS011;41888;44.696;10.522;2022-12-07T07:34:43;18.73;;;8.98;;
56005;SDS011;41888;44.696;10.522;2022-12-07T07:37:09;15.32;;;9.02;;
56005;SDS011;41888;44.696;10.522;2022-12-07T07:39:37;15.73;;;9.30;;
56005;SDS011;41888;44.696;10.522;2022-12-07T07:42:04;14.98;;;8.55;;
56005;SDS011;41888;44.696;10.522;2022-12-07T07:44:30;18.52;;;8.60;;
56005;SDS011;41888;44.696;10.522;2022-12-07T07:46:56;15.52;;;8.80;;
56005;SDS011;41888;44.696;10.522;2022-12-07T07:49:22;15.23;;;8.85;;
56005;SDS011;41888;44.696;10.522;2022-12-07T07:51:49;17.65;;;9.60;;
56005;SDS011;41888;44.696;10.522;2022-12-07T07:54:15;13.70;;;8.05;;
56005;SDS011;41888;44.696;10.522;2022-12-07T07:56:41;17.75;;;10.20;;
56005;SDS011;41888;44.696;10.522;2022-12-07T07:59:07;17.50;;;9.65;;
56005;SDS011;41888;44.696;10.522;2022-12-07T08:01:33;17.52;;;9.02;;
56005;SDS011;41888;44.696;10.522;2022-12-07T08:04:00;16.98;;;9.73;;
56005;SDS011;41888;44.696;10.522;2022-12-07T08:06:26;15.43;;;7.90;;
56005;SDS011;41888;44.696;10.522;2022-12-07T08:08:52;20.08;;;9.25;;
56005;SDS011;41888;44.696;10.522;2022-12-07T08:11:18;17.23;;;8.80;;
56005;SDS011;41888;44.696;10.522;2022-12-07T08:13:45;15.90;;;8.43;;
56005;SDS011;41888;44.696;10.522;2022-12-07T08:16:12;18.13;;;9.40;;
56005;SDS011;41888;44.696;10.522;2022-12-07T08:18:40;20.80;;;12.85;;
56005;SDS011;41888;44.696;10.522;2022-12-07T08:21:08;29.25;;;16.02;;
56005;SDS011;41888;44.696;10.522;2022-12-07T08:23:38;29.45;;;17.45;;
56005;SDS011;41888;44.696;10.522;2022-12-07T08:26:09;28.60;;;16.50;;
56005;SDS011;41888;44.696;10.522;2022-12-07T08:28:37;30.25;;;17.08;;
56005;SDS011;41888;44.696;10.522;2022-12-07T08:31:11;31.15;;;17.00;;
56005;SDS011;41888;44.696;10.522;2022-12-07T08:33:39;30.95;;;17.40;;
56005;SDS011;41888;44.696;10.522;2022-12-07T08:36:08;32.97;;;17.90;;
56005;SDS011;41888;44.696;10.522;2022-12-07T08:38:35;31.50;;;18.50;;
56005;SDS011;41888;44.696;10.522;2022-12-07T08:41:03;44.53;;;22.83;;
56005;SDS011;41888;44.696;10.522;2022-12-07T08:43:30;50.72;;;25.98;;
56005;SDS011;41888;44.696;10.522;2022-12-07T08:48:48;38.45;;;20.27;;
56005;SDS011;41888;44.696;10.522;2022-12-07T08:51:19;34.45;;;18.52;;
56005;SDS011;41888;44.696;10.522;2022-12-07T08:53:47;32.90;;;18.40;;
56005;SDS011;41888;44.696;10.522;2022-12-07T08:56:16;32.22;;;17.13;;
56005;SDS011;41888;44.696;10.522;2022-12-07T08:58:42;34.97;;;18.20;;
56005;SDS011;41888;44.696;10.522;2022-12-07T09:01:09;34.20;;;18.27;;
56005;SDS011;41888;44.696;10.522;2022-12-07T09:03:35;32.38;;;18.08;;
56005;SDS011;41888;44.696;10.522;2022-12-07T09:06:02;34.78;;;19.35;;
56005;SDS011;41888;44.696;10.522;2022-12-07T09:08:33;36.47;;;20.40;;
56005;SDS011;41888;44.696;10.522;2022-12-07T09:11:06;36.63;;;19.20;;
56005;SDS011;41888;44.696;10.522;2022-12-07T09:13:32;36.78;;;20.80;;
56005;SDS011;41888;44.696;10.522;2022-12-07T09:15:58;36.80;;;19.60;;
56005;SDS011;41888;44.696;10.522;2022-12-07T09:18:24;39.20;;;20.98;;
56005;SDS011;41888;44.696;10.522;2022-12-07T09:20:51;37.30;;;20.38;;
56005;SDS011;41888;44.696;10.522;2022-12-07T09:23:17;39.13;;;20.35;;
56005;SDS011;41888;44.696;10.522;2022-12-07T09:25:44;36.83;;;20.40;;
56005;SDS011;41888;44.696;10.522;2022-12-07T09:28:10;37.72;;;20.15;;
56005;SDS011;41888;44.696;10.522;2022-12-07T09:30:36;37.42;;;19.95;;
56005;SDS011;41888;44.696;10.522;2022-12-07T09:33:03;41.95;;;21.13;;
56005;SDS011;41888;44.696;10.522;2022-12-07T09:35:29;38.92;;;22.27;;
56005;SDS011;41888;44.696;10.522;2022-12-07T09:37:55;37.80;;;20.98;;
56005;SDS011;41888;44.696;10.522;2022-12-07T09:40:22;41.03;;;21.25;;
56005;SDS011;41888;44.696;10.522;2022-12-07T09:42:50;37.70;;;20.25;;
56005;SDS011;41888;44.696;10.522;2022-12-07T09:45:21;37.65;;;20.67;;
56005;SDS011;41888;44.696;10.522;2022-12-07T09:47:49;39.63;;;21.27;;
56005;SDS011;41888;44.696;10.522;2022-12-07T09:50:18;38.38;;;22.02;;
56005;SDS011;41888;44.696;10.522;2022-12-07T09:52:47;39.38;;;21.17;;
56005;SDS011;41888;44.696;10.522;2022-12-07T09:55:24;37.22;;;20.95;;
56005;SDS011;41888;44.696;10.522;2022-12-07T09:57:55;41.33;;;21.50;;
56005;SDS011;41888;44.696;10.522;2022-12-07T10:00:23;39.58;;;21.23;;
56005;SDS011;41888;44.696;10.522;2022-12-07T10:02:55;38.78;;;21.70;;
56005;SDS011;41888;44.696;10.522;2022-12-07T10:05:24;41.22;;;22.02;;
56005;SDS011;41888;44.696;10.522;2022-12-07T10:07:59;39.05;;;21.70;;
56005;SDS011;41888;44.696;10.522;2022-12-07T10:10:32;37.88;;;20.23;;
56005;SDS011;41888;44.696;10.522;2022-12-07T10:13:13;40.00;;;21.10;;
56005;SDS011;41888;44.696;10.522;2022-12-07T10:15:44;41.53;;;24.23;;
56005;SDS011;41888;44.696;10.522;2022-12-07T10:21:19;37.22;;;21.50;;
56005;SDS011;41888;44.696;10.522;2022-12-07T10:31:42;35.63;;;20.60;;
56005;SDS011;41888;44.696;10.522;2022-12-07T10:34:27;37.97;;;20.95;;
56005;SDS011;41888;44.696;10.522;2022-12-07T10:37:06;34.08;;;19.30;;
56005;SDS011;41888;44.696;10.522;2022-12-07T10:39:41;37.30;;;20.52;;
56005;SDS011;41888;44.696;10.522;2022-12-07T10:42:34;38.25;;;21.40;;
56005;SDS011;41888;44.696;10.522;2022-12-07T10:50:47;32.05;;;18.48;;
56005;SDS011;41888;44.696;10.522;2022-12-07T11:01:41;35.00;;;19.70;;
56005;SDS011;41888;44.696;10.522;2022-12-07T11:10:41;33.40;;;17.88;;
56005;SDS011;41888;44.696;10.522;2022-12-07T11:27:24;31.35;;;17.85;;
56005;SDS011;41888;44.696;10.522;2022-12-07T11:30:36;26.77;;;17.42;;
56005;SDS011;41888;44.696;10.522;2022-12-07T11:35:55;26.45;;;16.75;;
56005;SDS011;41888;44.696;10.522;2022-12-07T11:39:12;26.38;;;16.08;;
56005;SDS011;41888;44.696;10.522;2022-12-07T11:41:22;23.60;;;15.48;;
56005;SDS011;41888;44.696;10.522;2022-12-07T11:43:56;24.23;;;15.82;;
56005;SDS011;41888;44.696;10.522;2022-12-07T11:46:57;28.27;;;17.45;;
56005;SDS011;41888;44.696;10.522;2022-12-07T11:52:43;24.65;;;14.38;;
56005;SDS011;41888;44.696;10.522;2022-12-07T11:56:00;21.13;;;14.07;;
56005;SDS011;41888;44.696;10.522;2022-12-07T11:58:17;24.70;;;16.50;;
56005;SDS011;41888;44.696;10.522;2022-12-07T12:00:47;26.05;;;16.33;;
56005;SDS011;41888;44.696;10.522;2022-12-07T12:03:19;26.98;;;16.27;;
56005;SDS011;41888;44.696;10.522;2022-12-07T12:05:55;22.63;;;15.30;;
56005;SDS011;41888;44.696;10.522;2022-12-07T12:08:24;24.85;;;14.65;;
56005;SDS011;41888;44.696;10.522;2022-12-07T12:11:16;25.40;;;15.38;;
56005;SDS011;41888;44.696;10.522;2022-12-07T12:13:57;26.60;;;15.65;;
56005;SDS011;41888;44.696;10.522;2022-12-07T12:16:54;25.70;;;16.15;;
56005;SDS011;41888;44.696;10.522;2022-12-07T12:22:36;25.98;;;16.67;;
56005;SDS011;41888;44.696;10.522;2022-12-07T12:25:19;23.60;;;16.50;;
56005;SDS011;41888;44.696;10.522;2022-12-07T12:27:50;23.13;;;15.73;;
56005;SDS011;41888;44.696;10.522;2022-12-07T12:33:01;23.75;;;16.02;;
56005;SDS011;41888;44.696;10.522;2022-12-07T12:35:46;24.98;;;16.67;;
56005;SDS011;41888;44.696;10.522;2022-12-07T12:46:52;29.17;;;17.55;;
56005;SDS011;41888;44.696;10.522;2022-12-07T12:51:45;30.50;;;19.38;;
56005;SDS011;41888;44.696;10.522;2022-12-07T12:56:59;33.13;;;18.85;;
56005;SDS011;41888;44.696;10.522;2022-12-07T13:02:58;35.40;;;18.95;;
56005;SDS011;41888;44.696;10.522;2022-12-07T13:05:00;29.20;;;18.00;;
56005;SDS011;41888;44.696;10.522;2022-12-07T13:15:45;31.15;;;17.48;;
56005;SDS011;41888;44.696;10.522;2022-12-07T13:29:10;32.95;;;18.90;;
56005;SDS011;41888;44.696;10.522;2022-12-07T13:31:48;31.55;;;18.00;;
56005;SDS011;41888;44.696;10.522;2022-12-07T13:36:58;32.88;;;18.80;;
56005;SDS011;41888;44.696;10.522;2022-12-07T13:39:27;36.70;;;18.75;;
56005;SDS011;41888;44.696;10.522;2022-12-07T13:41:55;31.38;;;18.40;;
56005;SDS011;41888;44.696;10.522;2022-12-07T13:44:23;33.72;;;19.52;;
56005;SDS011;41888;44.696;10.522;2022-12-07T13:47:06;32.13;;;17.77;;
56005;SDS011;41888;44.696;10.522;2022-12-07T13:49:52;35.00;;;19.33;;
56005;SDS011;41888;44.696;10.522;2022-12-07T13:52:22;32.15;;;17.95;;
56005;SDS011;41888;44.696;10.522;2022-12-07T13:54:57;32.25;;;18.13;;
56005;SDS011;41888;44.696;10.522;2022-12-07T13:57:38;32.13;;;18.33;;
56005;SDS011;41888;44.696;10.522;2022-12-07T14:00:06;33.00;;;17.92;;
56005;SDS011;41888;44.696;10.522;2022-12-07T14:03:01;38.10;;;19.05;;
56005;SDS011;41888;44.696;10.522;2022-12-07T14:05:37;31.02;;;17.80;;
56005;SDS011;41888;44.696;10.522;2022-12-07T14:15:50;34.17;;;18.42;;
56005;SDS011;41888;44.696;10.522;2022-12-07T14:18:24;35.45;;;19.60;;
56005;SDS011;41888;44.696;10.522;2022-12-07T14:23:44;37.40;;;19.08;;
56005;SDS011;41888;44.696;10.522;2022-12-07T14:26:14;34.17;;;18.45;;
56005;SDS011;41888;44.696;10.522;2022-12-07T14:28:44;37.90;;;20.23;;
56005;SDS011;41888;44.696;10.522;2022-12-07T14:31:16;38.67;;;20.90;;
56005;SDS011;41888;44.696;10.522;2022-12-07T14:33:46;43.20;;;21.27;;
56005;SDS011;41888;44.696;10.522;2022-12-07T14:36:12;34.97;;;19.95;;
56005;SDS011;41888;44.696;10.522;2022-12-07T14:38:39;38.10;;;19.33;;
56005;SDS011;41888;44.696;10.522;2022-12-07T14:41:06;42.42;;;20.80;;
56005;SDS011;41888;44.696;10.522;2022-12-07T14:43:59;37.08;;;19.77;;
56005;SDS011;41888;44.696;10.522;2022-12-07T14:46:26;39.22;;;22.70;;
56005;SDS011;41888;44.696;10.522;2022-12-07T14:48:52;38.35;;;20.10;;
56005;SDS011;41888;44.696;10.522;2022-12-07T14:51:18;40.75;;;20.00;;
56005;SDS011;41888;44.696;10.522;2022-12-07T14:53:46;43.38;;;21.05;;
56005;SDS011;41888;44.696;10.522;2022-12-07T14:56:15;48.92;;;23.17;;
56005;SDS011;41888;44.696;10.522;2022-12-07T14:58:41;45.05;;;22.38;;
56005;SDS011;41888;44.696;10.522;2022-12-07T15:01:07;40.78;;;22.90;;
56005;SDS011;41888;44.696;10.522;2022-12-07T15:03:33;42.90;;;22.20;;
56005;SDS011;41888;44.696;10.522;2022-12-07T15:06:00;46.88;;;22.50;;
56005;SDS011;41888;44.696;10.522;2022-12-07T15:08:28;40.10;;;21.13;;
56005;SDS011;41888;44.696;10.522;2022-12-07T15:10:54;45.47;;;22.05;;
56005;SDS011;41888;44.696;10.522;2022-12-07T15:13:20;44.17;;;22.30;;
56005;SDS011;41888;44.696;10.522;2022-12-07T15:16:07;44.78;;;21.42;;
56005;SDS011;41888;44.696;10.522;2022-12-07T15:18:36;43.42;;;21.45;;
56005;SDS011;41888;44.696;10.522;2022-12-07T15:21:02;44.58;;;22.75;;
56005;SDS011;41888;44.696;10.522;2022-12-07T15:23:28;56.08;;;23.60;;
56005;SDS011;41888;44.696;10.522;2022-12-07T15:25:56;49.45;;;24.02;;
56005;SDS011;41888;44.696;10.522;2022-12-07T15:28:22;44.65;;;22.58;;
56005;SDS011;41888;44.696;10.522;2022-12-07T15:30:48;43.10;;;22.92;;
56005;SDS011;41888;44.696;10.522;2022-12-07T15:33:15;44.55;;;22.42;;
56005;SDS011;41888;44.696;10.522;2022-12-07T15:35:42;47.10;;;22.52;;
56005;SDS011;41888;44.696;10.522;2022-12-07T15:38:09;45.88;;;21.80;;
56005;SDS011;41888;44.696;10.522;2022-12-07T15:40:36;45.63;;;22.23;;
56005;SDS011;41888;44.696;10.522;2022-12-07T15:43:02;52.20;;;26.55;;
56005;SDS011;41888;44.696;10.522;2022-12-07T15:45:28;48.08;;;22.15;;
56005;SDS011;41888;44.696;10.522;2022-12-07T15:47:55;51.20;;;23.33;;
56005;SDS011;41888;44.696;10.522;2022-12-07T15:50:21;46.53;;;22.20;;
56005;SDS011;41888;44.696;10.522;2022-12-07T15:52:48;46.85;;;23.65;;
56005;SDS011;41888;44.696;10.522;2022-12-07T15:55:14;40.90;;;21.55;;
56005;SDS011;41888;44.696;10.522;2022-12-07T15:57:40;41.80;;;20.65;;
56005;SDS011;41888;44.696;10.522;2022-12-07T16:00:07;40.97;;;19.70;;
56005;SDS011;41888;44.696;10.522;2022-12-07T16:02:36;45.13;;;21.63;;
56005;SDS011;41888;44.696;10.522;2022-12-07T16:05:02;46.40;;;21.17;;
56005;SDS011;41888;44.696;10.522;2022-12-07T16:07:29;39.05;;;20.13;;
56005;SDS011;41888;44.696;10.522;2022-12-07T16:09:55;38.83;;;19.75;;
56005;SDS011;41888;44.696;10.522;2022-12-07T16:12:21;42.92;;;21.52;;
56005;SDS011;41888;44.696;10.522;2022-12-07T16:14:47;47.63;;;22.08;;
56005;SDS011;41888;44.696;10.522;2022-12-07T16:17:13;43.28;;;20.98;;
56005;SDS011;41888;44.696;10.522;2022-12-07T16:19:39;42.95;;;21.70;;
56005;SDS011;41888;44.696;10.522;2022-12-07T16:22:06;46.95;;;22.88;;
56005;SDS011;41888;44.696;10.522;2022-12-07T16:24:32;45.42;;;21.67;;
56005;SDS011;41888;44.696;10.522;2022-12-07T16:26:58;42.83;;;23.65;;
56005;SDS011;41888;44.696;10.522;2022-12-07T16:29:24;50.05;;;24.73;;
56005;SDS011;41888;44.696;10.522;2022-12-07T16:31:51;46.45;;;21.73;;
56005;SDS011;41888;44.696;10.522;2022-12-07T16:34:17;48.92;;;22.92;;
56005;SDS011;41888;44.696;10.522;2022-12-07T16:36:44;46.35;;;22.75;;
56005;SDS011;41888;44.696;10.522;2022-12-07T16:39:10;45.33;;;22.55;;
56005;SDS011;41888;44.696;10.522;2022-12-07T16:41:36;49.70;;;22.60;;
56005;SDS011;41888;44.696;10.522;2022-12-07T16:44:04;63.25;;;25.50;;
56005;SDS011;41888;44.696;10.522;2022-12-07T16:46:32;56.85;;;26.35;;